createdAt,value
2022-11-15T04:03:12.859Z,37.67
2022-11-15T04:08:16.265Z,36.67
2022-11-15T04:13:20.127Z,38.67
2022-11-15T04:23:51.194Z,34.67
2022-11-15T04:28:54.457Z,33.33
2022-11-15T04:39:18.892Z,39.33
2022-11-15T04:44:28.681Z,26.00
2022-11-15T04:54:55.563Z,13.67
2022-11-15T04:59:58.339Z,37.33
2022-11-15T05:05:02.398Z,32.33
2022-11-15T05:15:33.000Z,35.00
2022-11-15T05:20:36.048Z,35.00
2022-11-15T05:25:39.795Z,32.00
2022-11-15T05:41:32.808Z,36.00
2022-11-15T05:46:37.132Z,36.00
2022-11-15T05:51:40.803Z,37.00
2022-11-15T05:56:49.888Z,33.00
2022-11-15T06:01:52.887Z,33.33
2022-11-15T06:12:20.054Z,29.33
2022-11-15T06:28:00.359Z,35.67
2022-11-15T06:33:05.897Z,29.67
2022-11-15T06:38:15.105Z,33.33
2022-11-15T06:43:23.236Z,40.00
2022-11-15T07:04:29.958Z,34.33
2022-11-15T07:14:59.333Z,36.67
2022-11-15T07:20:04.458Z,31.67
2022-11-15T07:25:09.229Z,33.67
2022-11-15T07:35:44.206Z,33.00
2022-11-15T07:40:48.744Z,28.33
2022-11-15T07:45:59.920Z,36.67
2022-11-15T08:07:08.580Z,31.67
2022-11-15T08:12:11.485Z,29.67
2022-11-15T08:17:14.966Z,26.67
2022-11-15T08:22:26.022Z,32.33
2022-11-15T08:27:28.906Z,36.67
2022-11-15T08:32:33.827Z,31.33
2022-11-15T08:37:42.080Z,33.00
2022-11-15T08:42:47.723Z,36.33
2022-11-15T08:53:13.524Z,32.67
2022-11-15T08:58:16.279Z,35.00
2022-11-15T09:08:47.780Z,35.33
2022-11-15T09:13:50.930Z,24.00
2022-11-15T09:18:54.693Z,30.00
2022-11-15T09:39:56.236Z,31.25
2022-11-15T09:50:45.051Z,29.25
2022-11-15T10:01:21.090Z,30.50
2022-11-15T10:06:26.256Z,28.25
2022-11-15T10:11:37.764Z,26.25
2022-11-15T10:17:03.625Z,29.00
2022-11-15T10:22:22.276Z,26.50
2022-11-15T10:27:26.039Z,26.75
2022-11-15T10:32:38.422Z,23.50
2022-11-15T10:37:41.257Z,33.25
2022-11-15T10:42:44.156Z,33.25
2022-11-15T10:53:19.396Z,26.00
2022-11-15T10:58:29.772Z,27.75
2022-11-15T11:03:42.063Z,30.50
2022-11-15T11:08:57.892Z,29.50
2022-11-15T11:14:14.643Z,28.25
2022-11-15T11:25:21.183Z,28.75
2022-11-15T11:30:31.538Z,21.00
2022-11-15T11:35:42.855Z,30.00
2022-11-15T11:46:49.885Z,26.25
2022-11-15T11:52:05.380Z,26.50
2022-11-15T11:57:18.725Z,26.50
2022-11-15T12:02:30.801Z,25.75
2022-11-15T12:07:42.238Z,31.25
2022-11-15T12:12:54.996Z,22.00
2022-11-15T12:17:59.096Z,28.25
2022-11-15T12:23:13.784Z,26.50
2022-11-15T12:28:25.537Z,25.75
2022-11-15T12:33:40.298Z,29.25
2022-11-15T12:39:02.205Z,26.50
2022-11-15T12:44:06.844Z,35.33
2022-11-15T12:49:13.221Z,33.67
2022-11-15T13:00:58.414Z,34.67
2022-11-15T13:06:38.858Z,35.67
2022-11-15T13:17:43.508Z,31.50
2022-11-15T13:22:47.739Z,37.25
2022-11-15T13:27:51.987Z,28.00
2022-11-15T13:33:03.294Z,32.50
2022-11-15T13:38:07.413Z,34.75
2022-11-15T13:43:36.113Z,30.67
2022-11-15T13:48:49.673Z,35.00
2022-11-15T13:53:56.343Z,42.67
2022-11-15T13:59:19.406Z,45.33
2022-11-15T14:09:48.259Z,49.33
2022-11-15T14:14:52.301Z,47.67
2022-11-15T14:19:58.046Z,51.00
2022-11-15T14:30:32.862Z,48.00
2022-11-15T14:35:40.464Z,42.33
2022-11-15T14:40:46.496Z,44.00
2022-11-15T14:56:34.616Z,37.67
2022-11-15T15:01:37.420Z,36.67
2022-11-15T15:06:40.443Z,35.67
2022-11-15T15:11:50.391Z,32.33
2022-11-15T15:16:59.942Z,30.33
2022-11-15T15:32:47.039Z,32.67
2022-11-15T15:37:51.508Z,27.00
2022-11-15T15:42:54.434Z,31.00
2022-11-15T15:48:03.534Z,30.00
2022-11-15T15:53:06.924Z,27.67
2022-11-15T16:03:40.296Z,29.00
2022-11-15T16:09:08.230Z,35.67
2022-11-15T16:14:09.303Z,36.00
2022-11-15T16:19:20.339Z,34.33
2022-11-15T16:24:23.813Z,34.67
2022-11-15T16:29:30.912Z,41.00
2022-11-15T16:40:01.710Z,49.33
2022-11-15T16:45:04.832Z,51.33
2022-11-15T16:55:31.807Z,55.00
2022-11-15T17:00:34.989Z,55.00
2022-11-15T17:05:37.803Z,53.00
2022-11-15T17:10:49.172Z,52.33
2022-11-15T17:16:04.916Z,50.67
2022-11-15T17:21:10.205Z,50.33
2022-11-15T17:26:29.530Z,51.00
2022-11-15T17:31:34.961Z,48.33
2022-11-15T17:36:39.579Z,52.00
2022-11-15T17:41:48.720Z,49.67
2022-11-15T17:46:52.555Z,51.00
2022-11-15T17:51:55.501Z,51.33
2022-11-15T17:57:03.667Z,50.33
2022-11-15T18:02:06.436Z,54.67
2022-11-15T18:07:09.293Z,50.67
2022-11-15T18:12:20.279Z,53.00
2022-11-15T18:17:23.312Z,45.33
2022-11-15T18:22:26.641Z,51.33
2022-11-15T18:27:36.814Z,53.67
2022-11-15T18:32:41.131Z,51.33
2022-11-15T18:37:44.272Z,50.67
2022-11-15T18:48:23.974Z,48.33
2022-11-15T18:53:29.829Z,45.33
2022-11-15T18:58:33.609Z,42.00
2022-11-15T19:08:59.898Z,36.67
2022-11-15T19:24:45.606Z,29.33
2022-11-15T19:35:14.132Z,21.00
2022-11-15T19:40:18.833Z,33.67
2022-11-15T19:56:06.577Z,35.00
2022-11-15T20:01:20.324Z,34.67
2022-11-15T20:06:27.426Z,27.67
2022-11-15T20:11:36.535Z,30.67
2022-11-15T20:22:06.738Z,30.00
2022-11-15T20:27:09.490Z,28.67
2022-11-15T20:32:12.476Z,29.67
2022-11-15T20:37:20.543Z,21.33
2022-11-15T20:42:23.310Z,24.00
2022-11-15T20:52:47.859Z,19.67
2022-11-15T20:57:51.690Z,20.00
2022-11-15T21:02:54.375Z,17.33
2022-11-15T21:08:06.223Z,14.33
2022-11-15T21:18:31.595Z,12.33
2022-11-15T21:23:35.366Z,22.00
2022-11-15T21:28:39.071Z,23.00
2022-11-15T21:33:47.234Z,25.67
2022-11-15T21:38:52.037Z,32.67
2022-11-15T21:43:59.343Z,32.33
2022-11-15T21:49:12.390Z,31.00
2022-11-15T21:59:35.867Z,34.00
2022-11-15T22:04:39.611Z,35.33
2022-11-15T22:15:06.095Z,40.33
2022-11-15T22:20:42.980Z,44.33
2022-11-15T22:25:39.540Z,48.67
2022-11-15T22:30:48.790Z,51.67
2022-11-15T22:35:51.994Z,48.67
2022-11-15T22:40:56.898Z,42.67
2022-11-15T22:46:07.192Z,32.33
2022-11-15T22:51:12.197Z,27.33
2022-11-15T22:56:20.134Z,18.67
2022-11-15T23:01:29.358Z,10.00
2022-11-15T23:06:32.275Z,19.33
2022-11-15T23:11:35.122Z,16.67
2022-11-15T23:16:43.344Z,16.00
2022-11-15T23:21:48.537Z,13.67
2022-11-15T23:32:18.034Z,13.25
2022-11-15T23:37:21.679Z,13.75
2022-11-15T23:42:27.305Z,14.75
2022-11-15T23:52:55.982Z,15.00
2022-11-15T23:57:58.713Z,15.00
